sensor_id;sensor_type;location;lat;lon;timestamp;P1;durP1;ratioP1;P2;durP2;ratioP2
59159;SDS011;44941;45.058;20.076;2022-07-29T00:01:50;9.50;;;4.20;;
59159;SDS011;44941;45.058;20.076;2022-07-29T00:04:17;14.77;;;4.55;;
59159;SDS011;44941;45.058;20.076;2022-07-29T00:06:44;12.80;;;4.60;;
59159;SDS011;44941;45.058;20.076;2022-07-29T00:09:10;11.05;;;4.38;;
59159;SDS011;44941;45.058;20.076;2022-07-29T00:11:36;13.05;;;4.60;;
59159;SDS011;44941;45.058;20.076;2022-07-29T00:14:02;11.18;;;4.95;;
59159;SDS011;44941;45.058;20.076;2022-07-29T00:16:28;11.45;;;4.95;;
59159;SDS011;44941;45.058;20.076;2022-07-29T00:18:54;8.55;;;4.43;;
59159;SDS011;44941;45.058;20.076;2022-07-29T00:21:21;13.32;;;5.18;;
59159;SDS011;44941;45.058;20.076;2022-07-29T00:23:47;10.55;;;5.05;;
59159;SDS011;44941;45.058;20.076;2022-07-29T00:26:13;13.00;;;5.75;;
59159;SDS011;44941;45.058;20.076;2022-07-29T00:28:39;11.02;;;5.43;;
59159;SDS011;44941;45.058;20.076;2022-07-29T00:31:05;12.07;;;5.28;;
59159;SDS011;44941;45.058;20.076;2022-07-29T00:35:58;14.13;;;6.00;;
59159;SDS011;44941;45.058;20.076;2022-07-29T00:38:25;16.95;;;5.18;;
59159;SDS011;44941;45.058;20.076;2022-07-29T00:40:51;11.48;;;5.80;;
59159;SDS011;44941;45.058;20.076;2022-07-29T00:43:17;12.98;;;5.55;;
59159;SDS011;44941;45.058;20.076;2022-07-29T00:45:43;10.98;;;5.93;;
59159;SDS011;44941;45.058;20.076;2022-07-29T00:48:10;15.10;;;5.80;;
59159;SDS011;44941;45.058;20.076;2022-07-29T00:50:36;12.65;;;5.88;;
59159;SDS011;44941;45.058;20.076;2022-07-29T00:53:03;12.77;;;6.25;;
59159;SDS011;44941;45.058;20.076;2022-07-29T00:55:30;11.95;;;6.13;;
59159;SDS011;44941;45.058;20.076;2022-07-29T00:57:56;14.18;;;6.28;;
59159;SDS011;44941;45.058;20.076;2022-07-29T01:00:24;14.98;;;6.93;;
59159;SDS011;44941;45.058;20.076;2022-07-29T01:05:18;10.30;;;5.75;;
59159;SDS011;44941;45.058;20.076;2022-07-29T01:07:44;12.88;;;5.93;;
59159;SDS011;44941;45.058;20.076;2022-07-29T01:10:12;12.57;;;5.63;;
59159;SDS011;44941;45.058;20.076;2022-07-29T01:12:38;14.38;;;5.47;;
59159;SDS011;44941;45.058;20.076;2022-07-29T01:15:06;10.55;;;5.80;;
59159;SDS011;44941;45.058;20.076;2022-07-29T01:17:36;11.85;;;6.20;;
59159;SDS011;44941;45.058;20.076;2022-07-29T01:30:15;10.07;;;6.22;;
59159;SDS011;44941;45.058;20.076;2022-07-29T01:32:42;10.50;;;6.13;;
59159;SDS011;44941;45.058;20.076;2022-07-29T01:40:20;12.15;;;6.47;;
59159;SDS011;44941;45.058;20.076;2022-07-29T01:42:51;11.30;;;6.97;;
59159;SDS011;44941;45.058;20.076;2022-07-29T01:45:23;16.52;;;7.00;;
59159;SDS011;44941;45.058;20.076;2022-07-29T01:50:17;15.40;;;7.38;;
59159;SDS011;44941;45.058;20.076;2022-07-29T01:52:47;16.05;;;7.18;;
59159;SDS011;44941;45.058;20.076;2022-07-29T01:55:15;14.20;;;6.85;;
59159;SDS011;44941;45.058;20.076;2022-07-29T01:57:46;14.23;;;7.72;;
59159;SDS011;44941;45.058;20.076;2022-07-29T02:00:13;15.43;;;6.97;;
59159;SDS011;44941;45.058;20.076;2022-07-29T02:02:40;16.45;;;6.80;;
59159;SDS011;44941;45.058;20.076;2022-07-29T02:05:07;14.18;;;7.15;;
59159;SDS011;44941;45.058;20.076;2022-07-29T02:07:35;13.10;;;7.10;;
59159;SDS011;44941;45.058;20.076;2022-07-29T02:10:03;13.95;;;6.97;;
59159;SDS011;44941;45.058;20.076;2022-07-29T02:14:56;10.50;;;6.40;;
59159;SDS011;44941;45.058;20.076;2022-07-29T02:17:28;12.38;;;6.75;;
59159;SDS011;44941;45.058;20.076;2022-07-29T02:19:56;14.98;;;6.93;;
59159;SDS011;44941;45.058;20.076;2022-07-29T02:22:23;16.17;;;7.50;;
59159;SDS011;44941;45.058;20.076;2022-07-29T02:24:50;13.23;;;7.20;;
59159;SDS011;44941;45.058;20.076;2022-07-29T02:27:17;16.25;;;7.18;;
59159;SDS011;44941;45.058;20.076;2022-07-29T02:29:45;13.80;;;7.47;;
59159;SDS011;44941;45.058;20.076;2022-07-29T02:32:12;11.75;;;6.70;;
59159;SDS011;44941;45.058;20.076;2022-07-29T02:37:05;14.40;;;6.85;;
59159;SDS011;44941;45.058;20.076;2022-07-29T02:39:32;12.32;;;6.93;;
59159;SDS011;44941;45.058;20.076;2022-07-29T02:42:03;21.35;;;6.97;;
59159;SDS011;44941;45.058;20.076;2022-07-29T02:44:31;18.48;;;6.75;;
59159;SDS011;44941;45.058;20.076;2022-07-29T02:52:21;12.40;;;6.57;;
59159;SDS011;44941;45.058;20.076;2022-07-29T03:00:15;15.70;;;6.90;;
59159;SDS011;44941;45.058;20.076;2022-07-29T03:02:45;16.88;;;8.23;;
59159;SDS011;44941;45.058;20.076;2022-07-29T03:05:14;22.10;;;10.85;;
59159;SDS011;44941;45.058;20.076;2022-07-29T03:07:41;19.00;;;10.45;;
59159;SDS011;44941;45.058;20.076;2022-07-29T03:10:08;19.00;;;9.85;;
59159;SDS011;44941;45.058;20.076;2022-07-29T03:12:35;19.42;;;9.20;;
59159;SDS011;44941;45.058;20.076;2022-07-29T03:15:02;14.40;;;8.85;;
59159;SDS011;44941;45.058;20.076;2022-07-29T03:17:28;18.30;;;10.68;;
59159;SDS011;44941;45.058;20.076;2022-07-29T03:19:55;30.27;;;20.35;;
59159;SDS011;44941;45.058;20.076;2022-07-29T03:22:23;15.15;;;9.52;;
59159;SDS011;44941;45.058;20.076;2022-07-29T03:24:49;15.65;;;8.07;;
59159;SDS011;44941;45.058;20.076;2022-07-29T03:27:15;15.15;;;8.60;;
59159;SDS011;44941;45.058;20.076;2022-07-29T03:29:41;19.73;;;8.93;;
59159;SDS011;44941;45.058;20.076;2022-07-29T03:32:07;15.45;;;8.93;;
59159;SDS011;44941;45.058;20.076;2022-07-29T03:34:34;15.82;;;9.43;;
59159;SDS011;44941;45.058;20.076;2022-07-29T03:37:00;21.02;;;9.02;;
59159;SDS011;44941;45.058;20.076;2022-07-29T03:39:27;17.27;;;8.98;;
59159;SDS011;44941;45.058;20.076;2022-07-29T03:41:55;15.32;;;8.77;;
59159;SDS011;44941;45.058;20.076;2022-07-29T03:44:22;19.08;;;8.10;;
59159;SDS011;44941;45.058;20.076;2022-07-29T03:46:50;17.27;;;8.63;;
59159;SDS011;44941;45.058;20.076;2022-07-29T03:49:16;18.17;;;9.18;;
59159;SDS011;44941;45.058;20.076;2022-07-29T03:51:44;17.38;;;8.43;;
59159;SDS011;44941;45.058;20.076;2022-07-29T03:54:10;24.10;;;9.00;;
59159;SDS011;44941;45.058;20.076;2022-07-29T03:56:39;19.55;;;8.38;;
59159;SDS011;44941;45.058;20.076;2022-07-29T03:59:06;16.17;;;8.20;;
59159;SDS011;44941;45.058;20.076;2022-07-29T04:01:33;14.70;;;8.18;;
59159;SDS011;44941;45.058;20.076;2022-07-29T04:04:00;16.58;;;7.90;;
59159;SDS011;44941;45.058;20.076;2022-07-29T04:06:26;14.73;;;8.15;;
59159;SDS011;44941;45.058;20.076;2022-07-29T04:08:52;15.52;;;8.23;;
59159;SDS011;44941;45.058;20.076;2022-07-29T04:11:19;16.25;;;8.38;;
59159;SDS011;44941;45.058;20.076;2022-07-29T04:13:45;17.35;;;8.73;;
59159;SDS011;44941;45.058;20.076;2022-07-29T04:16:11;18.08;;;9.50;;
59159;SDS011;44941;45.058;20.076;2022-07-29T04:18:37;19.08;;;8.90;;
59159;SDS011;44941;45.058;20.076;2022-07-29T04:21:03;18.63;;;9.98;;
59159;SDS011;44941;45.058;20.076;2022-07-29T04:23:29;15.10;;;8.90;;
59159;SDS011;44941;45.058;20.076;2022-07-29T04:25:58;18.38;;;9.45;;
59159;SDS011;44941;45.058;20.076;2022-07-29T04:28:26;15.65;;;8.93;;
59159;SDS011;44941;45.058;20.076;2022-07-29T04:30:52;15.60;;;9.30;;
59159;SDS011;44941;45.058;20.076;2022-07-29T04:33:18;21.23;;;9.38;;
59159;SDS011;44941;45.058;20.076;2022-07-29T04:35:44;12.00;;;8.43;;
59159;SDS011;44941;45.058;20.076;2022-07-29T04:38:10;14.77;;;9.50;;
59159;SDS011;44941;45.058;20.076;2022-07-29T04:40:36;14.35;;;8.40;;
59159;SDS011;44941;45.058;20.076;2022-07-29T04:43:02;11.38;;;7.78;;
59159;SDS011;44941;45.058;20.076;2022-07-29T04:45:28;14.82;;;8.05;;
59159;SDS011;44941;45.058;20.076;2022-07-29T04:47:54;16.95;;;8.65;;
59159;SDS011;44941;45.058;20.076;2022-07-29T04:50:21;12.52;;;8.05;;
59159;SDS011;44941;45.058;20.076;2022-07-29T04:52:47;15.88;;;8.38;;
59159;SDS011;44941;45.058;20.076;2022-07-29T04:55:13;20.50;;;8.30;;
59159;SDS011;44941;45.058;20.076;2022-07-29T04:57:39;17.25;;;7.95;;
59159;SDS011;44941;45.058;20.076;2022-07-29T05:00:06;16.30;;;8.27;;
59159;SDS011;44941;45.058;20.076;2022-07-29T05:02:32;18.92;;;8.60;;
59159;SDS011;44941;45.058;20.076;2022-07-29T05:04:59;22.00;;;8.45;;
59159;SDS011;44941;45.058;20.076;2022-07-29T05:07:25;15.55;;;8.55;;
59159;SDS011;44941;45.058;20.076;2022-07-29T05:09:51;16.90;;;7.70;;
59159;SDS011;44941;45.058;20.076;2022-07-29T05:12:18;12.30;;;7.88;;
59159;SDS011;44941;45.058;20.076;2022-07-29T05:14:44;16.50;;;8.55;;
59159;SDS011;44941;45.058;20.076;2022-07-29T05:17:10;14.70;;;8.05;;
59159;SDS011;44941;45.058;20.076;2022-07-29T05:19:36;17.77;;;8.65;;
59159;SDS011;44941;45.058;20.076;2022-07-29T05:22:02;13.98;;;7.78;;
59159;SDS011;44941;45.058;20.076;2022-07-29T05:24:28;12.82;;;7.38;;
59159;SDS011;44941;45.058;20.076;2022-07-29T05:26:54;13.48;;;6.95;;
59159;SDS011;44941;45.058;20.076;2022-07-29T05:29:20;10.85;;;6.65;;
59159;SDS011;44941;45.058;20.076;2022-07-29T05:31:46;13.63;;;6.13;;
59159;SDS011;44941;45.058;20.076;2022-07-29T05:34:12;11.80;;;7.07;;
59159;SDS011;44941;45.058;20.076;2022-07-29T05:36:38;19.20;;;6.95;;
59159;SDS011;44941;45.058;20.076;2022-07-29T05:39:04;13.30;;;7.22;;
59159;SDS011;44941;45.058;20.076;2022-07-29T05:41:33;12.63;;;7.07;;
59159;SDS011;44941;45.058;20.076;2022-07-29T05:43:59;15.68;;;7.60;;
59159;SDS011;44941;45.058;20.076;2022-07-29T05:46:25;20.38;;;7.45;;
59159;SDS011;44941;45.058;20.076;2022-07-29T05:48:52;12.63;;;7.45;;
59159;SDS011;44941;45.058;20.076;2022-07-29T05:51:18;16.27;;;7.05;;
59159;SDS011;44941;45.058;20.076;2022-07-29T05:53:44;14.73;;;7.85;;
59159;SDS011;44941;45.058;20.076;2022-07-29T05:56:10;18.27;;;7.30;;
59159;SDS011;44941;45.058;20.076;2022-07-29T05:58:36;17.70;;;8.13;;
59159;SDS011;44941;45.058;20.076;2022-07-29T06:01:02;12.00;;;6.90;;
59159;SDS011;44941;45.058;20.076;2022-07-29T06:03:28;17.50;;;8.00;;
59159;SDS011;44941;45.058;20.076;2022-07-29T06:05:55;13.80;;;7.45;;
59159;SDS011;44941;45.058;20.076;2022-07-29T06:08:21;17.02;;;8.95;;
59159;SDS011;44941;45.058;20.076;2022-07-29T06:10:48;12.40;;;7.50;;
59159;SDS011;44941;45.058;20.076;2022-07-29T06:13:14;14.85;;;8.10;;
59159;SDS011;44941;45.058;20.076;2022-07-29T06:15:41;22.00;;;8.18;;
59159;SDS011;44941;45.058;20.076;2022-07-29T06:18:07;13.80;;;6.77;;
59159;SDS011;44941;45.058;20.076;2022-07-29T06:20:35;13.05;;;7.40;;
59159;SDS011;44941;45.058;20.076;2022-07-29T06:23:01;15.13;;;6.97;;
59159;SDS011;44941;45.058;20.076;2022-07-29T06:25:29;13.07;;;7.47;;
59159;SDS011;44941;45.058;20.076;2022-07-29T06:27:56;17.38;;;7.25;;
59159;SDS011;44941;45.058;20.076;2022-07-29T06:30:22;11.73;;;6.82;;
59159;SDS011;44941;45.058;20.076;2022-07-29T06:32:48;18.13;;;6.60;;
59159;SDS011;44941;45.058;20.076;2022-07-29T06:35:14;14.07;;;6.22;;
59159;SDS011;44941;45.058;20.076;2022-07-29T06:37:40;12.35;;;6.32;;
59159;SDS011;44941;45.058;20.076;2022-07-29T06:40:06;14.85;;;7.38;;
59159;SDS011;44941;45.058;20.076;2022-07-29T06:42:51;13.85;;;6.68;;
59159;SDS011;44941;45.058;20.076;2022-07-29T06:45:17;9.63;;;6.32;;
59159;SDS011;44941;45.058;20.076;2022-07-29T06:47:43;13.57;;;6.97;;
59159;SDS011;44941;45.058;20.076;2022-07-29T06:50:09;13.40;;;6.70;;
59159;SDS011;44941;45.058;20.076;2022-07-29T06:52:37;12.45;;;6.75;;
59159;SDS011;44941;45.058;20.076;2022-07-29T06:55:04;11.18;;;6.50;;
59159;SDS011;44941;45.058;20.076;2022-07-29T06:57:30;12.75;;;7.00;;
59159;SDS011;44941;45.058;20.076;2022-07-29T06:59:56;12.13;;;6.40;;
59159;SDS011;44941;45.058;20.076;2022-07-29T07:02:22;14.20;;;5.72;;
59159;SDS011;44941;45.058;20.076;2022-07-29T07:04:48;14.07;;;6.15;;
59159;SDS011;44941;45.058;20.076;2022-07-29T07:07:14;12.15;;;6.03;;
59159;SDS011;44941;45.058;20.076;2022-07-29T07:09:41;13.85;;;6.15;;
59159;SDS011;44941;45.058;20.076;2022-07-29T07:12:07;12.75;;;6.25;;
59159;SDS011;44941;45.058;20.076;2022-07-29T07:14:33;9.27;;;5.85;;
59159;SDS011;44941;45.058;20.076;2022-07-29T07:16:59;12.63;;;6.00;;
59159;SDS011;44941;45.058;20.076;2022-07-29T07:19:26;11.48;;;5.88;;
59159;SDS011;44941;45.058;20.076;2022-07-29T07:21:52;8.67;;;5.63;;
59159;SDS011;44941;45.058;20.076;2022-07-29T07:24:18;11.00;;;6.05;;
59159;SDS011;44941;45.058;20.076;2022-07-29T07:26:44;14.25;;;5.95;;
59159;SDS011;44941;45.058;20.076;2022-07-29T07:29:11;11.25;;;5.70;;
59159;SDS011;44941;45.058;20.076;2022-07-29T07:31:38;11.32;;;5.53;;
59159;SDS011;44941;45.058;20.076;2022-07-29T07:34:04;10.43;;;5.45;;
59159;SDS011;44941;45.058;20.076;2022-07-29T07:36:30;10.35;;;5.60;;
59159;SDS011;44941;45.058;20.076;2022-07-29T07:38:56;12.82;;;5.88;;
59159;SDS011;44941;45.058;20.076;2022-07-29T07:41:22;11.88;;;5.30;;
59159;SDS011;44941;45.058;20.076;2022-07-29T07:43:48;11.82;;;5.88;;
59159;SDS011;44941;45.058;20.076;2022-07-29T07:46:14;7.88;;;5.30;;
59159;SDS011;44941;45.058;20.076;2022-07-29T07:48:40;9.70;;;5.15;;
59159;SDS011;44941;45.058;20.076;2022-07-29T07:51:06;8.10;;;5.15;;
59159;SDS011;44941;45.058;20.076;2022-07-29T07:53:33;9.43;;;5.35;;
59159;SDS011;44941;45.058;20.076;2022-07-29T07:55:59;7.97;;;4.72;;
59159;SDS011;44941;45.058;20.076;2022-07-29T07:58:26;11.10;;;5.47;;
59159;SDS011;44941;45.058;20.076;2022-07-29T08:00:52;8.02;;;4.82;;
59159;SDS011;44941;45.058;20.076;2022-07-29T08:03:18;10.50;;;4.93;;
59159;SDS011;44941;45.058;20.076;2022-07-29T08:05:44;14.00;;;5.40;;
59159;SDS011;44941;45.058;20.076;2022-07-29T08:08:11;7.45;;;4.95;;
59159;SDS011;44941;45.058;20.076;2022-07-29T08:10:37;12.43;;;5.00;;
59159;SDS011;44941;45.058;20.076;2022-07-29T08:13:19;9.27;;;5.32;;
59159;SDS011;44941;45.058;20.076;2022-07-29T08:15:46;11.23;;;5.50;;
59159;SDS011;44941;45.058;20.076;2022-07-29T08:18:12;9.63;;;4.88;;
59159;SDS011;44941;45.058;20.076;2022-07-29T08:20:38;8.07;;;5.15;;
59159;SDS011;44941;45.058;20.076;2022-07-29T08:23:05;8.30;;;5.13;;
59159;SDS011;44941;45.058;20.076;2022-07-29T08:25:33;9.25;;;4.85;;
59159;SDS011;44941;45.058;20.076;2022-07-29T08:30:26;6.70;;;4.50;;
59159;SDS011;44941;45.058;20.076;2022-07-29T08:32:52;8.02;;;4.57;;
59159;SDS011;44941;45.058;20.076;2022-07-29T08:35:19;8.57;;;4.97;;
59159;SDS011;44941;45.058;20.076;2022-07-29T08:37:45;8.10;;;4.38;;
59159;SDS011;44941;45.058;20.076;2022-07-29T08:40:12;8.93;;;4.68;;
59159;SDS011;44941;45.058;20.076;2022-07-29T08:42:39;9.25;;;4.75;;
59159;SDS011;44941;45.058;20.076;2022-07-29T08:45:05;8.63;;;4.32;;
59159;SDS011;44941;45.058;20.076;2022-07-29T08:47:31;8.13;;;4.50;;
59159;SDS011;44941;45.058;20.076;2022-07-29T08:50:01;9.10;;;4.63;;
59159;SDS011;44941;45.058;20.076;2022-07-29T08:52:27;12.70;;;4.90;;
59159;SDS011;44941;45.058;20.076;2022-07-29T08:54:58;8.55;;;4.68;;
59159;SDS011;44941;45.058;20.076;2022-07-29T08:57:24;7.28;;;4.75;;
59159;SDS011;44941;45.058;20.076;2022-07-29T08:59:51;12.25;;;4.78;;
59159;SDS011;44941;45.058;20.076;2022-07-29T09:02:21;13.35;;;4.95;;
59159;SDS011;44941;45.058;20.076;2022-07-29T09:04:48;11.10;;;4.60;;
59159;SDS011;44941;45.058;20.076;2022-07-29T09:07:15;12.73;;;5.20;;
59159;SDS011;44941;45.058;20.076;2022-07-29T09:09:41;11.88;;;4.93;;
59159;SDS011;44941;45.058;20.076;2022-07-29T09:12:08;8.63;;;4.80;;
59159;SDS011;44941;45.058;20.076;2022-07-29T09:14:36;7.95;;;4.53;;
59159;SDS011;44941;45.058;20.076;2022-07-29T09:17:02;8.43;;;5.28;;
59159;SDS011;44941;45.058;20.076;2022-07-29T09:19:32;9.75;;;4.43;;
59159;SDS011;44941;45.058;20.076;2022-07-29T09:22:00;12.18;;;4.53;;
59159;SDS011;44941;45.058;20.076;2022-07-29T09:24:36;8.65;;;4.47;;
59159;SDS011;44941;45.058;20.076;2022-07-29T09:27:07;8.73;;;4.65;;
59159;SDS011;44941;45.058;20.076;2022-07-29T09:29:33;7.32;;;4.20;;
59159;SDS011;44941;45.058;20.076;2022-07-29T09:32:00;9.80;;;4.72;;
59159;SDS011;44941;45.058;20.076;2022-07-29T09:34:26;8.15;;;4.22;;
59159;SDS011;44941;45.058;20.076;2022-07-29T09:39:30;13.30;;;4.45;;
59159;SDS011;44941;45.058;20.076;2022-07-29T09:41:57;6.85;;;4.10;;
59159;SDS011;44941;45.058;20.076;2022-07-29T09:44:23;8.90;;;4.55;;
59159;SDS011;44941;45.058;20.076;2022-07-29T09:46:57;9.38;;;4.35;;
59159;SDS011;44941;45.058;20.076;2022-07-29T09:49:23;7.30;;;4.00;;
59159;SDS011;44941;45.058;20.076;2022-07-29T09:52:06;8.97;;;4.33;;
59159;SDS011;44941;45.058;20.076;2022-07-29T09:54:33;8.60;;;4.13;;
59159;SDS011;44941;45.058;20.076;2022-07-29T09:57:02;10.55;;;4.38;;
59159;SDS011;44941;45.058;20.076;2022-07-29T09:59:29;8.18;;;4.47;;
59159;SDS011;44941;45.058;20.076;2022-07-29T10:01:55;8.65;;;3.65;;
59159;SDS011;44941;45.058;20.076;2022-07-29T10:04:21;7.80;;;4.63;;
59159;SDS011;44941;45.058;20.076;2022-07-29T10:06:57;9.68;;;4.28;;
59159;SDS011;44941;45.058;20.076;2022-07-29T10:09:24;6.75;;;4.30;;
59159;SDS011;44941;45.058;20.076;2022-07-29T10:12:10;7.97;;;4.25;;
59159;SDS011;44941;45.058;20.076;2022-07-29T10:14:38;7.07;;;4.13;;
59159;SDS011;44941;45.058;20.076;2022-07-29T10:17:05;6.67;;;3.97;;
59159;SDS011;44941;45.058;20.076;2022-07-29T10:19:32;9.55;;;4.10;;
59159;SDS011;44941;45.058;20.076;2022-07-29T10:21:59;7.25;;;4.10;;
59159;SDS011;44941;45.058;20.076;2022-07-29T10:26:52;7.93;;;4.07;;
59159;SDS011;44941;45.058;20.076;2022-07-29T10:29:19;6.40;;;3.67;;
59159;SDS011;44941;45.058;20.076;2022-07-29T10:37:12;6.35;;;4.40;;
59159;SDS011;44941;45.058;20.076;2022-07-29T10:39:49;7.70;;;4.07;;
59159;SDS011;44941;45.058;20.076;2022-07-29T10:42:19;8.02;;;4.00;;
59159;SDS011;44941;45.058;20.076;2022-07-29T10:44:48;6.65;;;3.72;;
59159;SDS011;44941;45.058;20.076;2022-07-29T10:47:23;7.37;;;4.00;;
59159;SDS011;44941;45.058;20.076;2022-07-29T10:49:59;7.18;;;4.22;;
59159;SDS011;44941;45.058;20.076;2022-07-29T10:55:29;10.10;;;6.60;;
59159;SDS011;44941;45.058;20.076;2022-07-29T10:58:15;9.02;;;4.22;;
59159;SDS011;44941;45.058;20.076;2022-07-29T11:00:42;8.93;;;3.90;;
59159;SDS011;44941;45.058;20.076;2022-07-29T11:03:08;9.68;;;4.00;;
59159;SDS011;44941;45.058;20.076;2022-07-29T11:10:45;7.82;;;4.25;;
59159;SDS011;44941;45.058;20.076;2022-07-29T11:13:11;6.20;;;4.40;;
59159;SDS011;44941;45.058;20.076;2022-07-29T11:15:55;7.85;;;4.53;;
59159;SDS011;44941;45.058;20.076;2022-07-29T11:18:21;7.45;;;4.82;;
59159;SDS011;44941;45.058;20.076;2022-07-29T11:20:48;9.45;;;4.47;;
59159;SDS011;44941;45.058;20.076;2022-07-29T11:23:18;11.27;;;7.10;;
59159;SDS011;44941;45.058;20.076;2022-07-29T11:26:12;8.13;;;5.70;;
59159;SDS011;44941;45.058;20.076;2022-07-29T11:28:31;8.23;;;4.30;;
59159;SDS011;44941;45.058;20.076;2022-07-29T11:30:58;8.93;;;4.80;;
59159;SDS011;44941;45.058;20.076;2022-07-29T11:38:35;8.18;;;4.75;;
59159;SDS011;44941;45.058;20.076;2022-07-29T11:44:16;9.43;;;5.45;;
59159;SDS011;44941;45.058;20.076;2022-07-29T11:46:48;7.78;;;4.72;;
59159;SDS011;44941;45.058;20.076;2022-07-29T11:49:24;26.23;;;17.08;;
59159;SDS011;44941;45.058;20.076;2022-07-29T11:51:53;11.88;;;8.43;;
59159;SDS011;44941;45.058;20.076;2022-07-29T11:54:26;10.13;;;5.60;;
59159;SDS011;44941;45.058;20.076;2022-07-29T11:56:52;31.98;;;20.40;;
59159;SDS011;44941;45.058;20.076;2022-07-29T11:59:19;17.83;;;13.27;;
59159;SDS011;44941;45.058;20.076;2022-07-29T12:01:52;9.83;;;5.80;;
59159;SDS011;44941;45.058;20.076;2022-07-29T12:04:18;8.98;;;5.45;;
59159;SDS011;44941;45.058;20.076;2022-07-29T12:06:48;9.73;;;5.65;;
59159;SDS011;44941;45.058;20.076;2022-07-29T12:09:14;7.63;;;5.53;;
59159;SDS011;44941;45.058;20.076;2022-07-29T12:11:42;10.48;;;5.32;;
59159;SDS011;44941;45.058;20.076;2022-07-29T12:14:08;9.43;;;5.15;;
59159;SDS011;44941;45.058;20.076;2022-07-29T12:16:35;7.35;;;5.25;;
59159;SDS011;44941;45.058;20.076;2022-07-29T12:19:02;7.35;;;5.20;;
59159;SDS011;44941;45.058;20.076;2022-07-29T12:21:29;6.82;;;5.13;;
59159;SDS011;44941;45.058;20.076;2022-07-29T12:23:56;9.27;;;4.97;;
59159;SDS011;44941;45.058;20.076;2022-07-29T12:26:25;10.10;;;5.53;;
59159;SDS011;44941;45.058;20.076;2022-07-29T12:28:53;7.20;;;5.32;;
59159;SDS011;44941;45.058;20.076;2022-07-29T12:33:51;8.77;;;5.40;;
59159;SDS011;44941;45.058;20.076;2022-07-29T12:36:22;12.73;;;5.22;;
59159;SDS011;44941;45.058;20.076;2022-07-29T12:38:48;9.07;;;5.43;;
59159;SDS011;44941;45.058;20.076;2022-07-29T12:41:14;10.13;;;5.75;;
59159;SDS011;44941;45.058;20.076;2022-07-29T12:43:51;8.45;;;5.72;;
59159;SDS011;44941;45.058;20.076;2022-07-29T12:46:18;7.50;;;5.13;;
59159;SDS011;44941;45.058;20.076;2022-07-29T12:48:44;8.47;;;5.43;;
59159;SDS011;44941;45.058;20.076;2022-07-29T12:51:11;7.35;;;5.72;;
59159;SDS011;44941;45.058;20.076;2022-07-29T12:53:39;6.90;;;4.95;;
59159;SDS011;44941;45.058;20.076;2022-07-29T12:56:05;8.70;;;5.63;;
59159;SDS011;44941;45.058;20.076;2022-07-29T13:01:14;9.05;;;5.22;;
59159;SDS011;44941;45.058;20.076;2022-07-29T13:11:31;11.10;;;6.22;;
59159;SDS011;44941;45.058;20.076;2022-07-29T13:19:04;12.40;;;6.43;;
59159;SDS011;44941;45.058;20.076;2022-07-29T13:21:31;10.25;;;6.07;;
59159;SDS011;44941;45.058;20.076;2022-07-29T13:23:57;8.88;;;5.97;;
59159;SDS011;44941;45.058;20.076;2022-07-29T13:26:23;7.88;;;5.55;;
59159;SDS011;44941;45.058;20.076;2022-07-29T13:28:49;8.50;;;5.95;;
59159;SDS011;44941;45.058;20.076;2022-07-29T13:31:15;12.40;;;6.20;;
59159;SDS011;44941;45.058;20.076;2022-07-29T13:33:41;8.82;;;5.93;;
59159;SDS011;44941;45.058;20.076;2022-07-29T13:36:07;10.50;;;6.13;;
59159;SDS011;44941;45.058;20.076;2022-07-29T13:38:33;9.48;;;5.55;;
59159;SDS011;44941;45.058;20.076;2022-07-29T13:41:00;10.95;;;6.20;;
59159;SDS011;44941;45.058;20.076;2022-07-29T13:43:26;11.20;;;5.60;;
59159;SDS011;44941;45.058;20.076;2022-07-29T13:45:52;8.02;;;5.68;;
59159;SDS011;44941;45.058;20.076;2022-07-29T13:48:18;8.17;;;5.50;;
59159;SDS011;44941;45.058;20.076;2022-07-29T13:50:45;9.32;;;5.60;;
59159;SDS011;44941;45.058;20.076;2022-07-29T13:53:12;9.82;;;5.35;;
59159;SDS011;44941;45.058;20.076;2022-07-29T13:55:39;9.30;;;5.43;;
59159;SDS011;44941;45.058;20.076;2022-07-29T13:58:05;9.27;;;4.93;;
59159;SDS011;44941;45.058;20.076;2022-07-29T14:00:31;11.30;;;5.50;;
59159;SDS011;44941;45.058;20.076;2022-07-29T14:02:57;8.75;;;5.57;;
59159;SDS011;44941;45.058;20.076;2022-07-29T14:05:23;8.13;;;5.90;;
59159;SDS011;44941;45.058;20.076;2022-07-29T14:07:49;12.35;;;6.40;;
59159;SDS011;44941;45.058;20.076;2022-07-29T14:10:15;9.73;;;5.80;;
59159;SDS011;44941;45.058;20.076;2022-07-29T14:12:41;12.70;;;5.68;;
59159;SDS011;44941;45.058;20.076;2022-07-29T14:15:07;8.32;;;5.72;;
59159;SDS011;44941;45.058;20.076;2022-07-29T14:17:34;10.80;;;6.10;;
59159;SDS011;44941;45.058;20.076;2022-07-29T14:20:00;7.27;;;5.30;;
59159;SDS011;44941;45.058;20.076;2022-07-29T14:22:26;15.07;;;10.88;;
59159;SDS011;44941;45.058;20.076;2022-07-29T14:24:52;12.13;;;6.72;;
59159;SDS011;44941;45.058;20.076;2022-07-29T14:27:18;7.03;;;5.43;;
59159;SDS011;44941;45.058;20.076;2022-07-29T14:29:44;7.60;;;5.68;;
59159;SDS011;44941;45.058;20.076;2022-07-29T14:32:11;11.17;;;5.10;;
59159;SDS011;44941;45.058;20.076;2022-07-29T14:34:37;12.27;;;5.55;;
59159;SDS011;44941;45.058;20.076;2022-07-29T14:37:04;7.57;;;5.63;;
59159;SDS011;44941;45.058;20.076;2022-07-29T14:41:57;8.73;;;6.10;;
59159;SDS011;44941;45.058;20.076;2022-07-29T14:44:23;8.10;;;5.50;;
59159;SDS011;44941;45.058;20.076;2022-07-29T14:46:55;8.82;;;5.70;;
59159;SDS011;44941;45.058;20.076;2022-07-29T14:49:21;9.05;;;5.70;;
59159;SDS011;44941;45.058;20.076;2022-07-29T14:51:47;10.77;;;5.50;;
59159;SDS011;44941;45.058;20.076;2022-07-29T14:56:40;7.75;;;5.88;;
59159;SDS011;44941;45.058;20.076;2022-07-29T14:59:07;7.65;;;6.05;;
59159;SDS011;44941;45.058;20.076;2022-07-29T15:01:33;9.85;;;6.28;;
59159;SDS011;44941;45.058;20.076;2022-07-29T15:03:59;12.10;;;6.80;;
59159;SDS011;44941;45.058;20.076;2022-07-29T15:06:25;7.20;;;5.73;;
59159;SDS011;44941;45.058;20.076;2022-07-29T15:08:51;8.93;;;6.10;;
59159;SDS011;44941;45.058;20.076;2022-07-29T15:13:44;9.77;;;6.68;;
59159;SDS011;44941;45.058;20.076;2022-07-29T15:16:10;10.95;;;7.00;;
59159;SDS011;44941;45.058;20.076;2022-07-29T15:18:36;10.53;;;6.07;;
59159;SDS011;44941;45.058;20.076;2022-07-29T15:21:03;7.22;;;6.07;;
59159;SDS011;44941;45.058;20.076;2022-07-29T15:23:31;9.20;;;5.97;;
59159;SDS011;44941;45.058;20.076;2022-07-29T15:25:57;8.30;;;5.90;;
59159;SDS011;44941;45.058;20.076;2022-07-29T15:28:24;8.13;;;6.15;;
59159;SDS011;44941;45.058;20.076;2022-07-29T15:30:50;10.00;;;6.43;;
59159;SDS011;44941;45.058;20.076;2022-07-29T15:33:16;10.35;;;7.00;;
59159;SDS011;44941;45.058;20.076;2022-07-29T15:35:42;11.30;;;6.50;;
59159;SDS011;44941;45.058;20.076;2022-07-29T15:38:08;12.40;;;6.73;;
59159;SDS011;44941;45.058;20.076;2022-07-29T15:40:36;8.32;;;6.35;;
59159;SDS011;44941;45.058;20.076;2022-07-29T15:43:05;9.18;;;6.38;;
59159;SDS011;44941;45.058;20.076;2022-07-29T15:45:38;9.48;;;5.65;;
59159;SDS011;44941;45.058;20.076;2022-07-29T15:48:05;12.30;;;6.50;;
59159;SDS011;44941;45.058;20.076;2022-07-29T15:50:31;17.10;;;13.07;;
59159;SDS011;44941;45.058;20.076;2022-07-29T15:52:57;24.70;;;19.13;;
59159;SDS011;44941;45.058;20.076;2022-07-29T15:55:23;12.73;;;7.80;;
59159;SDS011;44941;45.058;20.076;2022-07-29T15:57:50;10.48;;;6.90;;
59159;SDS011;44941;45.058;20.076;2022-07-29T16:00:16;10.97;;;7.20;;